This is the latest recevied weather packets stored in our database for station/object AA7DG. If no packets are shown the sender has not sent any weather packets the latest 10 day(s).
| Time | Temp. | Humidity | Pressure | Rain* | Wind** | Luminosity | Snow |
|---|---|---|---|---|---|---|---|
| 1777794607 | 11.67° C | 71% | 1015.8 hPa | - | - | - | - |
| 1777794305 | 11.67° C | 71% | 1015.9 hPa | - | - | - | - |
| 1777794000 | 11.67° C | 70% | 1015.7 hPa | - | - | - | - |
| 1777793106 | 12.22° C | 70% | 1015.6 hPa | - | - | - | - |
| 1777791001 | 12.78° C | 67% | 1015.6 hPa | - | - | - | - |
| 1777786506 | 15.56° C | 56% | 1015.2 hPa | - | - | - | - |
| 1777786201 | 15.56° C | 56% | 1015.2 hPa | - | - | - | - |
| 1777785900 | 15.56° C | 56% | 1015.2 hPa | - | - | - | - |
| 1777784412 | 16.67° C | 55% | 1014.9 hPa | - | - | - | - |
| 1777783202 | 17.22° C | 51% | 1014.9 hPa | - | - | - | - |
| 1777782006 | 18.33° C | 47% | 1014.8 hPa | - | - | - | - |
| 1777781401 | 18.33° C | 46% | 1014.6 hPa | - | - | - | - |
| 1777780801 | 18.89° C | 47% | 1014.6 hPa | - | - | - | - |
| 1777779002 | 20.56° C | 42% | 1014.2 hPa | - | - | - | - |
| 1777777801 | 21.67° C | 37% | 1013.9 hPa | - | - | - | - |
| 1777775101 | 25.56° C | 25% | 1013.5 hPa | - | - | - | - |
| 1777774501 | 25.56° C | 25% | 1013.5 hPa | - | - | - | - |
| 1777773307 | 25.56° C | 23% | 1013.5 hPa | - | - | - | - |
| 1777773007 | 26.11° C | 23% | 1013.5 hPa | - | - | - | - |
| 1777771501 | 25.56° C | 22% | 1013.5 hPa | - | - | - | - |
| 1777768802 | 27.78° C | 18% | 1013.5 hPa | - | - | - | - |
| 1777767006 | 27.78° C | 20% | 1013.6 hPa | - | - | - | - |
| 1777766706 | 27.78° C | 21% | 1013.8 hPa | - | - | - | - |
| 1777763401 | 27.78° C | 20% | 1014.2 hPa | - | - | - | - |
| 1777763101 | 28.33° C | 19% | 1014.2 hPa | - | - | - | - |
* Rain since midnight (hover to see other rain measurements)
** Current wind speed in m/s (hover to see current wind gust speed)